Time;durP1;ratioP1;P1;durP2;ratioP2;P2;SDS_P1;SDS_P2;PMS_P1;PMS_P2;Temp;Humidity;BMP_temperature;BMP_pressure;BME280_temperature;BME280_humidity;BME280_pressure;Samples;Min_cycle;Max_cycle;Signal;HPM_P1;HPM_P2
2023/02/14 00:00:41;;;;;;;20.60;13.05;;;0.90;82.90;;;;;;5136303;27;20023;-78
2023/02/14 00:03:06;;;;;;;19.00;12.68;;;0.90;83.10;;;;;;5138047;27;20034;-82
2023/02/14 00:05:32;;;;;;;20.45;13.23;;;0.80;83.10;;;;;;5139127;27;20476;-78
2023/02/14 00:07:57;;;;;;;17.80;11.80;;;0.90;83.10;;;;;;5140082;27;20026;-78
2023/02/14 00:10:23;;;;;;;18.67;12.70;;;0.90;83.30;;;;;;5120562;27;20493;-77
2023/02/14 00:12:49;;;;;;;16.27;11.65;;;0.90;83.10;;;;;;5135792;27;20095;-75
2023/02/14 00:15:24;;;;;;;21.52;11.88;;;0.80;83.20;;;;;;5135345;27;20429;-79
2023/02/14 00:17:54;;;;;;;18.60;12.25;;;0.80;83.20;;;;;;5135774;27;20062;-76
2023/02/14 00:20:21;;;;;;;17.25;11.88;;;0.80;82.90;;;;;;5136006;27;20031;-79
2023/02/14 00:22:47;;;;;;;17.42;12.07;;;0.80;82.90;;;;;;5135611;27;20098;-78
2023/02/14 00:25:12;;;;;;;18.63;12.43;;;0.90;82.80;;;;;;5117021;27;20066;-77
2023/02/14 00:27:38;;;;;;;17.77;12.27;;;0.70;83.10;;;;;;5135193;27;20446;-82
2023/02/14 00:30:05;;;;;;;16.00;11.07;;;0.70;83.70;;;;;;5135586;27;20067;-80
2023/02/14 00:32:32;;;;;;;16.58;11.20;;;0.70;83.90;;;;;;5116951;27;20425;-78
2023/02/14 00:34:58;;;;;;;17.50;12.15;;;0.70;83.90;;;;;;5135166;27;20019;-82
2023/02/14 00:37:23;;;;;;;15.70;11.02;;;0.70;83.70;;;;;;5134954;27;20059;-80
2023/02/14 00:39:49;;;;;;;16.83;11.35;;;0.70;83.80;;;;;;5134991;27;20298;-78
2023/02/14 00:42:15;;;;;;;16.67;11.35;;;0.70;83.70;;;;;;5134966;27;20028;-78
2023/02/14 00:44:41;;;;;;;16.00;10.68;;;0.60;83.60;;;;;;5135008;27;20532;-80
2023/02/14 00:47:07;;;;;;;17.90;11.65;;;0.70;83.50;;;;;;5134998;27;20031;-81
2023/02/14 00:49:32;;;;;;;19.35;10.95;;;0.70;83.40;;;;;;5135172;27;20027;-81
2023/02/14 00:51:58;;;;;;;14.88;10.57;;;0.60;83.30;;;;;;5134914;27;20027;-79
2023/02/14 00:54:23;;;;;;;17.80;11.48;;;0.70;83.10;;;;;;5134904;27;20034;-80
2023/02/14 00:56:49;;;;;;;17.08;10.55;;;0.70;83.40;;;;;;5134677;27;20029;-81
2023/02/14 00:59:15;;;;;;;15.02;10.38;;;0.70;83.20;;;;;;5133967;27;20023;-82
2023/02/14 01:01:41;;;;;;;13.75;10.13;;;0.70;83.40;;;;;;5116282;27;20019;-79
2023/02/14 01:04:06;;;;;;;15.02;10.18;;;0.60;83.10;;;;;;5116019;27;20027;-78
2023/02/14 01:06:32;;;;;;;15.65;10.95;;;0.60;83.40;;;;;;5134707;27;20046;-78
2023/02/14 01:08:58;;;;;;;16.48;10.35;;;0.60;83.80;;;;;;5115996;27;20023;-79
2023/02/14 01:11:24;;;;;;;17.00;11.02;;;0.60;83.70;;;;;;5134428;27;20068;-80
2023/02/14 01:13:53;;;;;;;17.55;11.35;;;0.50;83.60;;;;;;5134045;27;20088;-80
2023/02/14 01:16:21;;;;;;;19.23;11.57;;;0.70;83.50;;;;;;5134352;27;20027;-80
2023/02/14 01:18:47;;;;;;;17.73;10.20;;;0.60;83.10;;;;;;5134223;27;20027;-79
2023/02/14 01:21:30;;;;;;;15.27;10.52;;;0.60;83.20;;;;;;5134163;27;20027;-76
2023/02/14 01:23:58;;;;;;;13.18;9.70;;;0.70;83.30;;;;;;5134080;27;20061;-78
2023/02/14 01:26:25;;;;;;;16.83;11.02;;;0.70;83.20;;;;;;5134332;27;20026;-77
2023/02/14 01:28:50;;;;;;;14.00;9.98;;;0.70;83.50;;;;;;5134114;27;20450;-79
2023/02/14 01:31:19;;;;;;;15.57;10.48;;;0.70;83.30;;;;;;5134189;27;20050;-78
2023/02/14 01:33:46;;;;;;;15.80;10.07;;;0.70;83.50;;;;;;5133987;27;20034;-79
2023/02/14 01:36:31;;;;;;;14.85;10.05;;;0.70;83.40;;;;;;5134185;27;20074;-79
2023/02/14 01:39:01;;;;;;;17.92;10.00;;;0.70;83.40;;;;;;5134733;27;20038;-80
2023/02/14 01:41:28;;;;;;;15.88;9.90;;;0.70;83.40;;;;;;5134046;27;20034;-73
2023/02/14 01:44:18;;;;;;;16.55;9.10;;;0.70;83.60;;;;;;5133914;27;20115;-74
2023/02/14 01:46:44;;;;;;;17.20;9.60;;;0.70;83.30;;;;;;5133860;27;20027;-73
2023/02/14 01:49:26;;;;;;;19.77;10.57;;;0.70;83.10;;;;;;5133780;28;20030;-73
2023/02/14 01:52:10;;;;;;;15.77;10.05;;;0.70;83.00;;;;;;5133923;27;20367;-73
2023/02/14 01:54:42;;;;;;;14.32;9.70;;;0.70;82.80;;;;;;5134038;28;20375;-72
2023/02/14 01:57:11;;;;;;;15.27;9.73;;;0.70;82.80;;;;;;5134049;28;20023;-74
2023/02/14 01:59:47;;;;;;;13.50;9.32;;;0.70;83.00;;;;;;5115797;28;20494;-75
2023/02/14 02:02:13;;;;;;;14.68;9.10;;;0.70;83.10;;;;;;5134255;28;20506;-75
2023/02/14 02:04:42;;;;;;;14.80;8.90;;;0.60;83.00;;;;;;5115460;28;20020;-74
2023/02/14 02:07:22;;;;;;;12.45;8.63;;;0.70;83.20;;;;;;5133817;27;20102;-73
2023/02/14 02:09:57;;;;;;;18.98;9.10;;;0.70;83.00;;;;;;5135742;27;20023;-73
2023/02/14 02:12:22;;;;;;;15.25;8.85;;;0.70;82.60;;;;;;5119544;27;20022;-72
2023/02/14 02:14:51;;;;;;;14.57;9.77;;;0.70;82.80;;;;;;5119198;27;20483;-72
2023/02/14 02:17:29;;;;;;;13.45;8.70;;;0.70;82.80;;;;;;5137851;27;20031;-73
2023/02/14 02:20:32;;;;;;;11.65;8.38;;;0.70;82.80;;;;;;5119265;27;20479;-72
2023/02/14 02:23:03;;;;;;;13.68;8.15;;;0.80;82.60;;;;;;5137586;27;20027;-72
2023/02/14 02:25:47;;;;;;;12.98;8.35;;;0.80;82.40;;;;;;5137709;27;20023;-75
2023/02/14 02:28:37;;;;;;;13.30;8.73;;;0.80;82.40;;;;;;5137555;27;20023;-74
2023/02/14 02:31:20;;;;;;;11.45;7.70;;;0.80;82.20;;;;;;5119030;27;20062;-75
2023/02/14 02:34:17;;;;;;;13.05;8.98;;;0.80;81.90;;;;;;5118799;27;20020;-74
2023/02/14 02:37:21;;;;;;;13.02;8.90;;;0.80;81.90;;;;;;5118586;27;20043;-73
2023/02/14 02:40:15;;;;;;;16.30;9.38;;;0.80;82.10;;;;;;5137361;27;20079;-74
2023/02/14 02:43:02;;;;;;;16.50;9.77;;;0.80;81.90;;;;;;5137412;27;20064;-75
2023/02/14 02:48:44;;;;;;;21.88;12.10;;;0.70;82.90;;;;;;5137362;27;20080;-76
2023/02/14 02:54:12;;;;;;;20.83;13.98;;;0.60;83.60;;;;;;5137038;27;20038;-72
2023/02/14 02:56:46;;;;;;;23.55;14.60;;;0.60;84.60;;;;;;5136891;27;20022;-72
2023/02/14 02:59:27;;;;;;;19.30;12.48;;;0.60;84.30;;;;;;5137034;27;20156;-73
2023/02/14 03:02:09;;;;;;;14.05;8.73;;;0.60;84.40;;;;;;5137070;27;20015;-73
2023/02/14 03:04:54;;;;;;;13.48;8.25;;;0.60;83.10;;;;;;5136775;27;20041;-72
2023/02/14 03:07:35;;;;;;;10.63;7.30;;;0.60;82.30;;;;;;5136900;27;20105;-72
2023/02/14 03:10:21;;;;;;;20.35;9.65;;;0.50;82.00;;;;;;5136950;27;20023;-72
2023/02/14 03:12:56;;;;;;;;;;;0.40;81.90;;;;;;5137425;27;20111;-73
2023/02/14 03:15:50;;;;;;;17.38;9.70;;;0.40;81.80;;;;;;5136688;27;19903;-73
2023/02/14 03:18:31;;;;;;;15.48;9.50;;;0.50;81.70;;;;;;5118104;27;20057;-81
2023/02/14 03:21:06;;;;;;;12.85;9.07;;;0.50;81.30;;;;;;5117391;28;20083;-74
2023/02/14 03:23:42;;;;;;;14.90;8.55;;;0.50;81.10;;;;;;5136684;27;20026;-73
2023/02/14 03:26:18;;;;;;;14.38;8.65;;;0.50;81.30;;;;;;5136665;27;20027;-72
2023/02/14 03:28:59;;;;;;;13.90;8.65;;;0.40;81.30;;;;;;5117859;27;20019;-72
2023/02/14 03:31:34;;;;;;;16.02;9.25;;;0.50;81.40;;;;;;5136482;27;20026;-80
2023/02/14 03:34:04;;;;;;;11.43;8.13;;;0.40;81.30;;;;;;5136362;27;20107;-73
2023/02/14 03:36:58;;;;;;;11.20;7.45;;;0.50;81.40;;;;;;5136137;27;20050;-73
2023/02/14 03:39:36;;;;;;;13.57;8.35;;;0.50;81.40;;;;;;5136491;27;20422;-73
2023/02/14 03:42:20;;;;;;;14.38;8.68;;;0.50;81.50;;;;;;5136208;27;20023;-73
2023/02/14 03:44:48;;;;;;;13.07;8.73;;;0.50;81.50;;;;;;5136301;27;20031;-73
2023/02/14 03:47:21;;;;;;;12.60;7.70;;;0.60;81.20;;;;;;5136102;27;20023;-74
2023/02/14 03:49:52;;;;;;;10.65;7.25;;;0.60;81.00;;;;;;5136360;27;20471;-73
2023/02/14 03:52:20;;;;;;;12.98;7.75;;;0.60;81.10;;;;;;5117647;27;20523;-72
2023/02/14 03:54:47;;;;;;;12.60;7.70;;;0.60;81.20;;;;;;5135985;27;20019;-74
2023/02/14 03:57:25;;;;;;;10.38;6.88;;;0.60;81.00;;;;;;5135871;27;20517;-73
2023/02/14 03:59:51;;;;;;;13.70;7.88;;;0.70;81.10;;;;;;5136135;27;20096;-74
2023/02/14 04:02:41;;;;;;;13.52;7.68;;;0.60;80.60;;;;;;5136031;27;20418;-73
2023/02/14 04:05:19;;;;;;;11.20;7.57;;;0.60;80.90;;;;;;5117412;27;20122;-73
2023/02/14 04:07:48;;;;;;;9.10;6.68;;;0.60;80.70;;;;;;5135925;27;20035;-74
2023/02/14 04:10:14;;;;;;;12.18;7.97;;;0.60;80.70;;;;;;5135697;27;20019;-73
2023/02/14 04:12:40;;;;;;;10.93;6.78;;;0.60;80.80;;;;;;5135677;27;20023;-74
2023/02/14 04:15:06;;;;;;;10.68;7.63;;;0.60;80.70;;;;;;5135859;27;20027;-82
2023/02/14 04:20:16;;;;;;;12.95;7.75;;;0.60;80.50;;;;;;5135619;27;20548;-81
2023/02/14 04:22:41;;;;;;;14.65;8.95;;;0.60;80.50;;;;;;5117002;27;20032;-82
2023/02/14 04:25:07;;;;;;;14.30;9.05;;;0.40;80.70;;;;;;5135491;27;20034;-80
2023/02/14 04:27:32;;;;;;;13.93;8.93;;;0.30;81.40;;;;;;5135350;27;20038;-77
2023/02/14 04:29:58;;;;;;;16.33;9.30;;;0.30;81.40;;;;;;5135306;27;20098;-81
2023/02/14 04:32:23;;;;;;;16.02;8.45;;;0.30;81.50;;;;;;5135351;27;20035;-77
2023/02/14 04:34:49;;;;;;;15.30;8.50;;;0.40;81.70;;;;;;5135243;27;20027;-78
2023/02/14 04:37:17;;;;;;;13.45;8.57;;;0.40;81.80;;;;;;5135008;27;20057;-81
2023/02/14 04:39:42;;;;;;;13.15;7.15;;;0.50;81.90;;;;;;5135133;27;20042;-73
2023/02/14 04:42:08;;;;;;;11.88;7.57;;;0.50;81.90;;;;;;5135009;27;20073;-76
2023/02/14 04:44:34;;;;;;;9.80;6.63;;;0.50;81.20;;;;;;5135098;27;20030;-81
2023/02/14 04:47:00;;;;;;;11.93;6.80;;;0.40;80.90;;;;;;5135008;27;20111;-80
2023/02/14 04:49:26;;;;;;;11.95;7.13;;;0.40;81.00;;;;;;5116516;27;20019;-79
2023/02/14 04:51:51;;;;;;;11.75;7.18;;;0.40;81.00;;;;;;5135187;27;20113;-81
2023/02/14 04:54:17;;;;;;;12.43;6.32;;;0.40;81.00;;;;;;5136328;27;20031;-83
2023/02/14 04:56:42;;;;;;;9.23;6.65;;;0.40;81.00;;;;;;5134600;27;20019;-82
2023/02/14 04:59:08;;;;;;;10.07;5.95;;;0.40;80.80;;;;;;5134807;27;20031;-80
2023/02/14 05:01:34;;;;;;;12.05;7.03;;;0.50;80.80;;;;;;5116340;27;20594;-82
2023/02/14 05:04:00;;;;;;;17.23;8.35;;;0.50;80.80;;;;;;5135047;27;20027;-80
2023/02/14 05:06:25;;;;;;;13.48;8.05;;;0.50;80.90;;;;;;5134587;27;20019;-82
2023/02/14 05:08:51;;;;;;;17.05;8.77;;;0.60;80.70;;;;;;5134495;27;20023;-81
2023/02/14 05:11:16;;;;;;;14.23;8.25;;;0.60;80.50;;;;;;5116104;27;20463;-81
2023/02/14 05:13:42;;;;;;;11.52;6.95;;;0.50;80.40;;;;;;5134478;27;20463;-75
2023/02/14 05:16:07;;;;;;;12.50;7.30;;;0.50;80.40;;;;;;5134443;27;20027;-80
2023/02/14 05:18:33;;;;;;;11.07;7.25;;;0.50;80.50;;;;;;5116051;27;20092;-81
2023/02/14 05:20:58;;;;;;;12.40;7.47;;;0.40;80.60;;;;;;5116247;27;20058;-78
2023/02/14 05:23:24;;;;;;;15.40;9.77;;;0.40;80.70;;;;;;5116137;27;20052;-80
2023/02/14 05:25:51;;;;;;;14.18;8.90;;;0.30;80.50;;;;;;5116089;27;20102;-82
2023/02/14 05:28:18;;;;;;;30.10;14.65;;;0.30;80.80;;;;;;5115924;27;20364;-76
2023/02/14 05:30:43;;;;;;;12.68;7.68;;;0.30;80.70;;;;;;5134355;27;20387;-80
2023/02/14 05:33:09;;;;;;;13.35;7.25;;;0.20;80.70;;;;;;5134340;27;20031;-81
2023/02/14 05:35:35;;;;;;;11.57;7.82;;;0.20;81.10;;;;;;5134083;27;20035;-76
2023/02/14 05:38:00;;;;;;;14.30;8.07;;;0.10;81.80;;;;;;5134060;27;20031;-78
2023/02/14 05:40:26;;;;;;;14.18;8.55;;;0.10;81.60;;;;;;5118870;27;20459;-74
2023/02/14 05:42:52;;;;;;;16.38;9.57;;;0.10;81.30;;;;;;5137920;27;20105;-74
2023/02/14 05:45:18;;;;;;;17.35;10.00;;;0.20;81.00;;;;;;5139987;27;20046;-73
2023/02/14 05:47:46;;;;;;;21.15;10.90;;;0.30;80.70;;;;;;5138498;27;20528;-74
2023/02/14 05:50:11;;;;;;;16.45;9.77;;;0.30;80.70;;;;;;5136759;27;20456;-77
2023/02/14 05:52:37;;;;;;;14.77;9.52;;;0.30;80.80;;;;;;5134189;28;20023;-79
2023/02/14 05:55:03;;;;;;;16.75;10.13;;;0.30;80.30;;;;;;5115823;28;20106;-79
2023/02/14 05:57:28;;;;;;;16.00;9.25;;;0.30;80.10;;;;;;5134146;28;20039;-75
2023/02/14 05:59:54;;;;;;;16.92;10.05;;;0.30;80.00;;;;;;5134139;28;20467;-74
2023/02/14 06:02:19;;;;;;;16.00;9.00;;;0.20;79.90;;;;;;5115476;28;20468;-75
2023/02/14 06:04:45;;;;;;;17.30;9.98;;;0.20;80.10;;;;;;5115323;28;20038;-80
2023/02/14 06:07:11;;;;;;;16.35;9.15;;;0.20;80.00;;;;;;5133831;28;20030;-76
2023/02/14 06:09:36;;;;;;;12.50;8.23;;;0.20;80.00;;;;;;5134012;28;20023;-74
2023/02/14 06:12:02;;;;;;;15.40;9.02;;;0.20;80.10;;;;;;5133734;28;20421;-77
2023/02/14 06:14:27;;;;;;;15.18;9.20;;;0.30;80.20;;;;;;5133822;28;20491;-74
2023/02/14 06:16:53;;;;;;;13.98;9.38;;;0.20;79.80;;;;;;5133506;28;20019;-77
2023/02/14 06:19:19;;;;;;;13.75;8.75;;;0.20;79.90;;;;;;5133615;28;20102;-74
2023/02/14 06:21:44;;;;;;;14.43;9.07;;;0.30;80.00;;;;;;5133560;28;20015;-74
2023/02/14 06:24:10;;;;;;;16.23;9.38;;;0.20;79.60;;;;;;5133461;28;20023;-79
2023/02/14 06:26:35;;;;;;;16.98;9.85;;;0.20;79.60;;;;;;5133454;28;20584;-80
2023/02/14 06:29:02;;;;;;;16.83;9.93;;;0.20;79.60;;;;;;5133094;28;20023;-80
2023/02/14 06:31:28;;;;;;;20.23;10.60;;;0.20;79.70;;;;;;5133046;28;20027;-79
2023/02/14 06:33:54;;;;;;;17.23;9.88;;;0.20;79.50;;;;;;5133592;28;20038;-81
2023/02/14 06:36:20;;;;;;;15.82;10.10;;;0.20;79.40;;;;;;5133402;28;20399;-81
2023/02/14 06:38:46;;;;;;;16.58;10.45;;;0.20;79.00;;;;;;5133184;28;20034;-81
2023/02/14 06:41:13;;;;;;;25.55;12.50;;;0.10;78.80;;;;;;5133371;28;20070;-82
2023/02/14 06:43:44;;;;;;;20.77;11.48;;;0.50;89.90;;;;;;5133326;28;20463;-74
2023/02/14 06:46:10;;;;;;;19.13;10.23;;;0.90;88.00;;;;;;5133364;28;20387;-72
2023/02/14 06:48:35;;;;;;;18.92;10.35;;;1.10;83.10;;;;;;5132962;28;20504;-72
2023/02/14 06:51:01;;;;;;;24.05;9.35;;;1.30;80.80;;;;;;5133351;28;20118;-74
2023/02/14 06:53:27;;;;;;;21.13;9.02;;;1.60;78.30;;;;;;5133408;28;20023;-74
2023/02/14 06:55:53;;;;;;;18.33;8.85;;;1.70;76.80;;;;;;5114724;28;20028;-74
2023/02/14 06:58:19;;;;;;;15.95;9.32;;;1.90;76.80;;;;;;5136752;27;20077;-73
2023/02/14 07:00:45;;;;;;;17.17;10.57;;;2.10;76.60;;;;;;5136953;27;20024;-74
2023/02/14 07:03:10;;;;;;;19.23;11.13;;;2.30;76.10;;;;;;5118554;27;20027;-74
2023/02/14 07:05:36;;;;;;;15.40;10.13;;;2.30;74.80;;;;;;5118505;27;20080;-73
2023/02/14 07:08:02;;;;;;;16.05;9.75;;;2.20;73.60;;;;;;5118418;27;20390;-74
2023/02/14 07:10:27;;;;;;;15.95;10.25;;;2.10;74.30;;;;;;5118624;27;20539;-73
2023/02/14 07:12:53;;;;;;;25.52;12.50;;;1.90;73.60;;;;;;5136551;27;20023;-79
2023/02/14 07:15:19;;;;;;;32.50;14.98;;;1.80;74.20;;;;;;5118211;27;20498;-78
2023/02/14 07:17:47;;;;;;;28.88;13.02;;;1.50;72.90;;;;;;5136589;27;20114;-72
2023/02/14 07:20:13;;;;;;;16.02;9.48;;;1.30;74.10;;;;;;5136265;27;20023;-77
2023/02/14 07:22:39;;;;;;;16.60;10.15;;;1.20;73.70;;;;;;5117760;27;20019;-73
2023/02/14 07:25:05;;;;;;;17.00;9.90;;;1.20;74.00;;;;;;5136366;27;20019;-74
2023/02/14 07:27:32;;;;;;;20.13;10.13;;;1.10;74.90;;;;;;5136504;27;20090;-74
2023/02/14 07:29:58;;;;;;;16.38;10.52;;;1.00;75.70;;;;;;5117338;27;20027;-75
2023/02/14 07:32:24;;;;;;;16.50;9.88;;;0.90;76.20;;;;;;5136578;27;20023;-76
2023/02/14 07:34:50;;;;;;;18.13;10.32;;;0.90;76.30;;;;;;5136278;27;20023;-73
2023/02/14 07:37:16;;;;;;;23.15;10.73;;;0.90;76.30;;;;;;5136164;27;20093;-73
2023/02/14 07:39:45;;;;;;;19.63;10.05;;;0.90;76.30;;;;;;5117769;27;20031;-74
2023/02/14 07:42:11;;;;;;;18.70;10.27;;;1.00;76.70;;;;;;5136068;27;20412;-75
2023/02/14 07:44:37;;;;;;;17.15;9.25;;;1.00;76.50;;;;;;5135938;27;20035;-73
2023/02/14 07:47:07;;;;;;;15.02;9.00;;;1.00;76.10;;;;;;5135822;27;20015;-75
2023/02/14 07:49:33;;;;;;;15.95;9.35;;;1.00;76.40;;;;;;5135852;27;20027;-74
2023/02/14 07:51:59;;;;;;;16.08;9.35;;;1.10;76.50;;;;;;5117248;27;20072;-75
2023/02/14 07:54:24;;;;;;;16.23;9.50;;;1.20;76.40;;;;;;5135569;27;20062;-76
2023/02/14 07:56:50;;;;;;;16.10;9.52;;;1.30;75.70;;;;;;5135813;27;20023;-78
2023/02/14 07:59:16;;;;;;;15.80;9.30;;;1.40;75.50;;;;;;5117303;27;20437;-76
2023/02/14 08:01:42;;;;;;;13.95;8.75;;;1.40;75.40;;;;;;5117286;27;20034;-77
2023/02/14 08:04:07;;;;;;;17.58;9.60;;;1.40;75.50;;;;;;5135482;27;20086;-77
2023/02/14 08:06:33;;;;;;;20.17;10.75;;;1.50;76.10;;;;;;5135613;27;20023;-76
2023/02/14 08:08:59;;;;;;;18.77;11.18;;;1.60;74.90;;;;;;5135628;27;20028;-77
2023/02/14 08:14:09;;;;;;;15.85;9.73;;;1.80;74.70;;;;;;5134886;27;20026;-77
2023/02/14 08:16:34;;;;;;;20.45;10.35;;;2.00;74.10;;;;;;5135606;27;20023;-75
2023/02/14 08:19:00;;;;;;;18.20;10.25;;;2.00;73.70;;;;;;5135342;27;20079;-74
2023/02/14 08:21:26;;;;;;;17.67;11.07;;;2.10;73.50;;;;;;5135244;27;20379;-74
2023/02/14 08:23:52;;;;;;;21.40;11.15;;;2.20;73.30;;;;;;5135301;27;20446;-74
2023/02/14 08:26:18;;;;;;;18.95;10.65;;;2.40;73.20;;;;;;5135039;27;20141;-74
2023/02/14 08:28:43;;;;;;;17.55;9.60;;;2.50;72.90;;;;;;5135267;27;20443;-75
2023/02/14 08:31:10;;;;;;;14.60;7.80;;;2.70;73.10;;;;;;5134287;27;20459;-74
2023/02/14 08:33:35;;;;;;;13.52;8.20;;;2.80;73.90;;;;;;5131413;27;20023;-75
2023/02/14 08:36:01;;;;;;;14.35;8.13;;;3.00;73.70;;;;;;5134750;27;20047;-75
2023/02/14 08:38:27;;;;;;;13.00;7.60;;;3.10;72.70;;;;;;5134841;27;20070;-75
2023/02/14 08:40:53;;;;;;;16.48;7.57;;;3.30;73.80;;;;;;5134766;27;20049;-73
2023/02/14 08:43:18;;;;;;;12.70;7.70;;;3.40;74.30;;;;;;5134774;27;20027;-77
2023/02/14 08:45:44;;;;;;;13.40;7.38;;;3.60;73.10;;;;;;5139641;27;20064;-73
2023/02/14 08:48:11;;;;;;;10.25;6.53;;;3.80;71.30;;;;;;5119742;27;20479;-73
2023/02/14 08:50:37;;;;;;;10.93;6.43;;;4.00;71.80;;;;;;5134765;27;20540;-74
2023/02/14 08:53:11;;;;;;;14.23;7.10;;;4.20;71.10;;;;;;5134601;27;20024;-76
2023/02/14 08:55:38;;;;;;;13.77;6.97;;;4.40;70.50;;;;;;5134436;27;20479;-76
2023/02/14 08:58:04;;;;;;;12.07;6.20;;;4.60;69.20;;;;;;5134436;27;20219;-78
2023/02/14 09:00:31;;;;;;;13.18;6.20;;;4.80;68.50;;;;;;5116295;27;20539;-78
2023/02/14 09:02:57;;;;;;;14.07;7.78;;;4.90;67.70;;;;;;5134484;27;20033;-79
2023/02/14 09:05:22;;;;;;;12.07;6.78;;;5.00;67.20;;;;;;5134310;27;20019;-79
2023/02/14 09:07:49;;;;;;;16.30;9.63;;;5.10;66.80;;;;;;5134281;27;20020;-76
2023/02/14 09:10:17;;;;;;;15.13;8.82;;;5.20;66.40;;;;;;5134315;27;20102;-73
2023/02/14 09:12:43;;;;;;;12.70;7.47;;;5.40;66.40;;;;;;5134288;27;20076;-72
2023/02/14 09:15:10;;;;;;;11.40;6.93;;;5.50;66.60;;;;;;5133665;27;20030;-77
2023/02/14 09:17:37;;;;;;;10.85;6.03;;;5.80;67.20;;;;;;5133965;27;20472;-76
2023/02/14 09:20:07;;;;;;;8.80;5.28;;;6.00;67.00;;;;;;5133159;27;20023;-76
2023/02/14 09:22:33;;;;;;;8.30;5.15;;;6.30;66.90;;;;;;5134086;27;20019;-78
2023/02/14 09:24:59;;;;;;;9.50;5.78;;;6.60;66.70;;;;;;5115952;27;20030;-75
2023/02/14 09:27:26;;;;;;;10.13;5.72;;;6.80;66.00;;;;;;5116022;27;20375;-77
2023/02/14 09:29:51;;;;;;;9.48;6.10;;;7.10;65.10;;;;;;5134184;27;20110;-75
2023/02/14 09:32:17;;;;;;;11.52;6.47;;;7.50;64.00;;;;;;5110224;27;20119;-72
2023/02/14 09:34:43;;;;;;;11.65;5.93;;;7.60;62.00;;;;;;5133961;27;20182;-73
2023/02/14 09:37:10;;;;;;;10.25;5.63;;;7.90;61.40;;;;;;5133052;27;20137;-73
2023/02/14 09:39:37;;;;;;;8.48;5.25;;;8.10;60.50;;;;;;5115544;27;20051;-73
2023/02/14 09:42:21;;;;;;;12.00;5.20;;;8.30;59.60;;;;;;5133954;27;20463;-73
2023/02/14 09:45:00;;;;;;;10.05;5.07;;;8.30;59.30;;;;;;5133649;27;20485;-76
2023/02/14 09:47:39;;;;;;;7.68;5.10;;;8.40;59.20;;;;;;5133968;27;20031;-75
2023/02/14 09:50:12;;;;;;;8.68;5.03;;;8.60;57.80;;;;;;5133800;27;20022;-74
2023/02/14 09:52:38;;;;;;;7.35;4.68;;;8.70;56.60;;;;;;5133541;27;20043;-72
2023/02/14 09:55:11;;;;;;;7.05;4.30;;;8.90;56.60;;;;;;5133642;28;20030;-73
2023/02/14 09:57:58;;;;;;;5.47;4.38;;;9.20;55.80;;;;;;5133738;28;20030;-75
2023/02/14 10:00:36;;;;;;;8.68;4.32;;;9.40;53.90;;;;;;5133658;28;20023;-73
2023/02/14 10:03:36;;;;;;;6.07;4.15;;;9.60;52.50;;;;;;5133573;28;20368;-73
2023/02/14 10:06:19;;;;;;;8.20;5.30;;;9.90;50.60;;;;;;5133447;28;20023;-73
2023/02/14 10:08:57;;;;;;;7.93;5.00;;;10.00;50.40;;;;;;5133520;28;20038;-73
2023/02/14 10:11:23;;;;;;;8.10;4.97;;;10.10;49.50;;;;;;5133262;28;20019;-73
2023/02/14 10:14:04;;;;;;;8.60;4.85;;;10.20;48.10;;;;;;5115093;28;20137;-74
2023/02/14 10:16:50;;;;;;;6.65;4.25;;;10.40;48.80;;;;;;5115489;28;20027;-76
2023/02/14 10:19:25;;;;;;;7.82;4.03;;;10.50;46.80;;;;;;5133983;28;20479;-74
2023/02/14 10:21:56;;;;;;;4.60;3.47;;;10.70;46.40;;;;;;5134017;28;20051;-74
2023/02/14 10:24:35;;;;;;;6.28;3.75;;;10.90;46.80;;;;;;5115591;28;20023;-74
2023/02/14 10:27:30;;;;;;;7.40;4.82;;;11.20;44.80;;;;;;5134016;28;20103;-73
2023/02/14 10:29:56;;;;;;;7.25;4.55;;;11.30;44.40;;;;;;5104440;27;20035;-73
2023/02/14 10:32:36;;;;;;;6.25;4.75;;;11.70;44.70;;;;;;5119487;27;20027;-74
2023/02/14 10:35:22;;;;;;;9.10;5.25;;;12.00;44.50;;;;;;5119592;27;20132;-74
2023/02/14 10:37:57;;;;;;;8.13;5.38;;;12.30;44.10;;;;;;5114681;27;20521;-80
2023/02/14 10:40:35;;;;;;;10.38;5.32;;;12.50;42.70;;;;;;5140661;27;20079;-79
2023/02/14 10:43:18;;;;;;;7.82;5.40;;;12.70;41.60;;;;;;5139554;27;20092;-82
2023/02/14 10:46:04;;;;;;;6.72;5.30;;;13.00;41.40;;;;;;5142368;27;20098;-81
2023/02/14 10:48:49;;;;;;;9.02;5.32;;;13.20;41.20;;;;;;5119325;27;20403;-81
2023/02/14 10:51:24;;;;;;;15.52;7.13;;;13.40;41.30;;;;;;5137505;27;20020;-81
2023/02/14 10:53:53;;;;;;;9.18;5.35;;;13.70;41.10;;;;;;5137553;27;20087;-80
2023/02/14 10:56:24;;;;;;;12.40;5.72;;;13.70;41.40;;;;;;5137395;27;20380;-82
2023/02/14 10:58:52;;;;;;;8.30;4.93;;;13.60;40.90;;;;;;5137252;27;20399;-80
2023/02/14 11:01:18;;;;;;;10.15;4.10;;;13.40;40.20;;;;;;5137497;27;20034;-81
2023/02/14 11:04:02;;;;;;;7.50;3.78;;;13.50;40.70;;;;;;5136894;27;20027;-82
2023/02/14 11:06:29;;;;;;;11.38;3.83;;;13.60;39.30;;;;;;5136823;27;20019;-79
2023/02/14 11:08:55;;;;;;;4.07;2.65;;;13.90;38.90;;;;;;5136866;27;20417;-81
2023/02/14 11:11:31;;;;;;;2.83;1.65;;;14.20;37.30;;;;;;5136941;27;20034;-74
2023/02/14 11:13:57;;;;;;;4.10;1.98;;;14.20;35.30;;;;;;5136404;27;20459;-79
2023/02/14 11:16:32;;;;;;;4.22;2.00;;;14.40;34.50;;;;;;5137222;27;20038;-80
2023/02/14 11:19:18;;;;;;;;;;;14.60;35.00;;;;;;5137340;27;20058;-78
2023/02/14 11:21:46;;;;;;;9.70;2.70;;;14.70;34.90;;;;;;5100540;27;20255;-79
2023/02/14 11:24:23;;;;;;;7.20;3.03;;;14.80;34.40;;;;;;5136529;27;20260;-74
2023/02/14 11:26:51;;;;;;;7.32;2.55;;;14.80;34.70;;;;;;5136615;27;20068;-80
2023/02/14 11:29:26;;;;;;;5.25;3.08;;;14.60;35.00;;;;;;5136724;27;20068;-81
2023/02/14 11:31:51;;;;;;;3.95;2.50;;;14.90;35.60;;;;;;5136684;27;20100;-80
2023/02/14 11:34:35;;;;;;;5.72;3.08;;;15.20;35.20;;;;;;5136461;27;20464;-79
2023/02/14 11:37:02;;;;;;;6.68;4.10;;;15.20;33.90;;;;;;5130810;27;20406;-79
2023/02/14 11:39:33;;;;;;;7.72;4.05;;;15.40;34.60;;;;;;5136123;27;20027;-82
2023/02/14 11:42:03;;;;;;;10.52;4.18;;;15.70;34.90;;;;;;5135237;27;20054;-82
2023/02/14 11:44:31;;;;;;;8.77;3.85;;;16.00;34.30;;;;;;5135955;27;20047;-74
2023/02/14 11:47:25;;;;;;;7.60;3.30;;;16.30;33.50;;;;;;5117695;27;20078;-80
2023/02/14 11:50:04;;;;;;;9.52;4.63;;;16.60;33.30;;;;;;5135476;27;20012;-79
2023/02/14 11:52:31;;;;;;;9.05;4.18;;;16.80;33.00;;;;;;5135613;27;20051;-80
2023/02/14 11:54:58;;;;;;;10.52;4.38;;;17.00;32.70;;;;;;5136028;27;20049;-79
2023/02/14 11:57:32;;;;;;;8.38;4.40;;;17.00;32.50;;;;;;5135732;27;20059;-81
2023/02/14 12:00:00;;;;;;;13.13;5.28;;;17.20;32.50;;;;;;5135418;27;20073;-78
2023/02/14 12:02:46;;;;;;;7.63;4.07;;;17.50;32.50;;;;;;5135935;27;20023;-80
2023/02/14 12:05:47;;;;;;;8.75;5.05;;;17.80;32.10;;;;;;5135496;27;20019;-81
2023/02/14 12:08:13;;;;;;;10.07;5.13;;;17.70;31.30;;;;;;5116890;27;20058;-74
2023/02/14 12:10:40;;;;;;;15.90;6.50;;;18.00;30.30;;;;;;5135417;27;20403;-79
2023/02/14 12:13:06;;;;;;;10.07;5.47;;;18.00;29.90;;;;;;5135294;27;20471;-76
2023/02/14 12:15:37;;;;;;;17.55;5.28;;;18.00;29.80;;;;;;5117027;27;20019;-77
2023/02/14 12:18:24;;;;;;;10.98;5.70;;;18.30;29.10;;;;;;5116505;27;20132;-77
2023/02/14 12:21:00;;;;;;;10.45;5.60;;;18.20;29.20;;;;;;5116944;27;20027;-76
2023/02/14 12:23:29;;;;;;;9.32;4.70;;;18.00;28.50;;;;;;5116912;27;20115;-78
2023/02/14 12:26:08;;;;;;;12.75;5.43;;;18.10;29.30;;;;;;5116685;27;20031;-79
2023/02/14 12:28:42;;;;;;;9.45;5.70;;;18.50;29.70;;;;;;5116883;27;20676;-77
2023/02/14 12:31:12;;;;;;;11.55;6.38;;;18.80;27.30;;;;;;5116750;27;20023;-80
2023/02/14 12:33:38;;;;;;;8.10;4.88;;;19.10;27.60;;;;;;5135423;27;20027;-80
2023/02/14 12:36:46;;;;;;;5.97;4.50;;;19.40;26.10;;;;;;5135079;27;20047;-81
2023/02/14 12:39:34;;;;;;;7.50;4.20;;;19.30;24.60;;;;;;5116560;27;20035;-78
2023/02/14 12:42:08;;;;;;;9.73;4.55;;;19.50;24.70;;;;;;5134995;27;20023;-79
2023/02/14 12:45:01;;;;;;;6.90;4.17;;;19.90;23.60;;;;;;5116500;27;20023;-80
2023/02/14 12:47:48;;;;;;;10.13;5.88;;;19.80;23.70;;;;;;5135059;27;20284;-81
2023/02/14 12:50:32;;;;;;;7.50;5.40;;;19.70;23.80;;;;;;5117219;27;20092;-81
2023/02/14 12:53:27;;;;;;;14.23;5.20;;;20.10;24.00;;;;;;5116387;27;20019;-79
2023/02/14 12:56:05;;;;;;;8.95;5.82;;;20.60;23.60;;;;;;5116244;27;20539;-78
2023/02/14 12:58:55;;;;;;;9.30;5.75;;;20.90;24.00;;;;;;5116351;27;20039;-75
2023/02/14 13:01:46;;;;;;;11.13;5.70;;;21.20;23.70;;;;;;5134737;27;20012;-81
2023/02/14 13:04:20;;;;;;;12.18;6.45;;;21.20;23.40;;;;;;5116228;27;20027;-76
2023/02/14 13:07:12;;;;;;;11.07;6.15;;;21.00;22.70;;;;;;5116140;27;20109;-74
2023/02/14 13:09:51;;;;;;;10.38;6.05;;;21.30;22.90;;;;;;5115505;27;20027;-79
2023/02/14 13:12:50;;;;;;;12.50;5.85;;;21.30;22.30;;;;;;5116362;27;20046;-74
2023/02/14 13:15:35;;;;;;;11.13;5.80;;;21.50;21.60;;;;;;5115915;27;20051;-74
2023/02/14 13:18:22;;;;;;;15.85;7.18;;;21.80;21.40;;;;;;5134043;27;20031;-79